Time,TemperatureF,DewpointF,PressureIn,WindDirection,WindDirectionDegrees,WindSpeedMPH,WindSpeedGustMPH,Humidity,HourlyPrecipIn,Conditions,Clouds,dailyrainin,SoftwareType,DateUTC
2013-04-29 04:44:00,47.3,39.1,30.23,SW,225,0.0,0.0,73,0.00,,,0.00,WUHU216HW,2013-04-29 08:44:00,
2013-04-29 04:49:00,47.3,39.1,30.23,SW,225,0.0,0.0,73,0.00,,,0.00,WUHU216HW,2013-04-29 08:49:00,
2013-04-29 04:54:00,47.3,39.1,30.23,SW,225,0.0,0.0,73,0.00,,,0.00,WUHU216HW,2013-04-29 08:54:00,
2013-04-29 04:59:00,47.3,39.1,30.23,SW,225,0.0,0.0,73,0.00,,,0.00,WUHU216HW,2013-04-29 08:59:00,
2013-04-29 05:04:00,47.3,39.4,30.23,SW,225,0.0,0.0,74,0.00,,,0.00,WUHU216HW,2013-04-29 09:04:00,
2013-04-29 05:09:00,47.3,39.4,30.23,SW,225,0.0,0.0,74,0.00,,,0.00,WUHU216HW,2013-04-29 09:09:00,
2013-04-29 05:14:00,47.3,39.4,30.23,SW,225,0.0,0.0,74,0.00,,,0.00,WUHU216HW,2013-04-29 09:14:00,
2013-04-29 05:19:00,47.3,39.4,30.22,SW,225,0.0,0.0,74,0.00,,,0.00,WUHU216HW,2013-04-29 09:19:00,
2013-04-29 05:24:00,47.3,39.4,30.23,SW,225,0.0,0.0,74,0.00,,,0.00,WUHU216HW,2013-04-29 09:24:00,
2013-04-29 05:29:00,47.3,39.4,30.23,SW,225,0.0,0.0,74,0.00,,,0.00,WUHU216HW,2013-04-29 09:29:00,
2013-04-29 05:34:00,47.3,39.8,30.23,SW,225,0.0,0.0,75,0.00,,,0.00,WUHU216HW,2013-04-29 09:34:00,
2013-04-29 05:39:00,47.3,39.8,30.23,SW,225,0.0,0.0,75,0.00,,,0.00,WUHU216HW,2013-04-29 09:39:00,
2013-04-29 05:44:00,47.3,39.8,30.23,SW,225,0.0,0.0,75,0.00,,,0.00,WUHU216HW,2013-04-29 09:44:00,
2013-04-29 05:49:00,47.5,40.0,30.23,SW,225,0.0,0.0,75,0.00,,,0.00,WUHU216HW,2013-04-29 09:49:00,
2013-04-29 05:54:00,47.3,39.8,30.23,SW,225,0.0,0.0,75,0.00,,,0.00,WUHU216HW,2013-04-29 09:54:00,
2013-04-29 05:59:00,47.5,40.3,30.23,SW,225,0.0,0.0,76,0.00,,,0.00,WUHU216HW,2013-04-29 09:59:00,
2013-04-29 06:04:00,47.5,40.3,30.23,SW,225,0.0,0.0,76,0.00,,,0.00,WUHU216HW,2013-04-29 10:04:00,
2013-04-29 06:09:00,47.5,40.3,30.23,SW,225,0.0,0.0,76,0.00,,,0.00,WUHU216HW,2013-04-29 10:09:00,
2013-04-29 06:14:00,47.5,40.3,30.23,SW,225,0.0,0.0,76,0.00,,,0.00,WUHU216HW,2013-04-29 10:14:00,
2013-04-29 06:19:00,47.5,40.3,30.23,SW,225,0.0,0.0,76,0.00,,,0.00,WUHU216HW,2013-04-29 10:19:00,
2013-04-29 06:24:00,47.5,40.6,30.23,SW,225,0.0,0.0,77,0.00,,,0.00,WUHU216HW,2013-04-29 10:24:00,
2013-04-29 06:29:00,47.5,40.6,30.23,SW,225,0.0,0.0,77,0.00,,,0.00,WUHU216HW,2013-04-29 10:29:00,
2013-04-29 06:34:00,47.7,40.8,30.24,SW,225,0.0,0.0,77,0.00,,,0.00,WUHU216HW,2013-04-29 10:34:00,
2013-04-29 06:39:00,47.7,40.8,30.24,SW,225,0.0,0.0,77,0.00,,,0.00,WUHU216HW,2013-04-29 10:39:00,
2013-04-29 06:44:00,47.7,40.8,30.24,SW,225,0.0,0.0,77,0.00,,,0.00,WUHU216HW,2013-04-29 10:44:00,
2013-04-29 06:49:00,47.7,40.8,30.24,SW,225,0.0,0.0,77,0.00,,,0.00,WUHU216HW,2013-04-29 10:49:00,
2013-04-29 06:54:00,47.7,41.1,30.24,SW,225,0.0,0.0,78,0.00,,,0.00,WUHU216HW,2013-04-29 10:54:00,
2013-04-29 06:59:00,47.9,41.3,30.24,SW,225,0.0,0.0,78,0.00,,,0.00,WUHU216HW,2013-04-29 10:59:00,
2013-04-29 07:04:00,47.9,41.3,30.24,SW,225,0.0,0.0,78,0.00,,,0.00,WUHU216HW,2013-04-29 11:04:00,
2013-04-29 07:09:00,48.1,41.5,30.24,SW,225,0.0,0.0,78,0.00,,,0.00,WUHU216HW,2013-04-29 11:09:00,
2013-04-29 07:14:00,48.2,41.6,30.24,SW,225,0.0,0.0,78,0.00,,,0.00,WUHU216HW,2013-04-29 11:14:00,
2013-04-29 07:19:00,48.2,41.6,30.24,SW,225,0.0,0.0,78,0.00,,,0.00,WUHU216HW,2013-04-29 11:19:00,
2013-04-29 07:24:00,48.6,41.9,30.25,SW,225,0.0,0.0,78,0.00,,,0.00,WUHU216HW,2013-04-29 11:24:00,
2013-04-29 07:29:00,48.6,41.9,30.25,SSW,203,0.0,0.0,78,0.00,,,0.00,WUHU216HW,2013-04-29 11:29:00,
2013-04-29 07:34:00,49.0,42.3,30.25,SW,225,0.0,0.0,78,0.00,,,0.00,WUHU216HW,2013-04-29 11:34:00,
2013-04-29 07:39:00,49.3,42.7,30.25,South,180,0.0,0.0,78,0.00,,,0.00,WUHU216HW,2013-04-29 11:39:00,
2013-04-29 07:45:00,49.5,43.2,30.25,North,0,0.4,0.4,79,0.00,,,0.00,WUHU216HW,2013-04-29 11:45:00,
2013-04-29 07:52:00,49.9,43.2,30.24,SE,135,0.0,0.4,78,0.00,,,0.00,WUHU216HW,2013-04-29 11:52:00,
2013-04-29 07:57:00,50.0,43.4,30.24,ENE,68,0.7,0.7,78,0.00,,,0.00,WUHU216HW,2013-04-29 11:57:00,
2013-04-29 08:02:00,50.2,43.6,30.24,SE,131,0.3,0.7,78,0.00,,,0.00,WUHU216HW,2013-04-29 12:02:00,
2013-04-29 08:07:00,50.6,43.9,30.24,East,90,1.1,1.3,78,0.00,,,0.00,WUHU216HW,2013-04-29 12:07:00,
2013-04-29 08:12:00,50.9,44.3,30.24,ENE,68,1.1,1.3,78,0.00,,,0.00,WUHU216HW,2013-04-29 12:12:00,
2013-04-29 08:16:00,51.3,44.6,30.24,ENE,68,0.7,1.6,78,0.00,,,0.00,WUHU216HW,2013-04-29 12:16:00,
2013-04-29 08:22:00,51.7,45.0,30.24,East,101,0.9,1.6,78,0.00,,,0.00,WUHU216HW,2013-04-29 12:22:00,
2013-04-29 08:26:00,51.8,45.2,30.24,ESE,113,0.7,2.2,78,0.00,,,0.00,WUHU216HW,2013-04-29 12:26:00,
2013-04-29 08:32:00,52.4,45.7,30.24,SSE,158,1.1,2.2,78,0.00,,,0.00,WUHU216HW,2013-04-29 12:32:00,
2013-04-29 08:37:00,52.7,45.7,30.24,NNE,32,0.6,1.3,77,0.00,,,0.00,WUHU216HW,2013-04-29 12:37:00,
2013-04-29 08:42:00,53.1,45.7,30.24,SW,232,0.5,1.3,76,0.00,,,0.00,WUHU216HW,2013-04-29 12:42:00,
2013-04-29 08:47:00,53.6,45.9,30.24,SSW,213,1.5,2.5,75,0.00,,,0.00,WUHU216HW,2013-04-29 12:47:00,
2013-04-29 08:52:00,54.4,47.0,30.24,South,184,2.0,3.8,76,0.00,,,0.00,WUHU216HW,2013-04-29 12:52:00,
2013-04-29 08:57:00,55.4,48.0,30.24,SSW,203,3.8,5.4,76,0.00,,,0.00,WUHU216HW,2013-04-29 12:57:00,
2013-04-29 09:02:00,56.2,48.0,30.24,SSW,203,2.0,5.4,74,0.00,,,0.00,WUHU216HW,2013-04-29 13:02:00,
2013-04-29 09:07:00,56.7,48.1,30.24,SSW,200,2.8,4.7,73,0.00,,,0.00,WUHU216HW,2013-04-29 13:07:00,
2013-04-29 09:12:00,57.2,48.2,30.24,SW,216,3.4,4.7,72,0.00,,,0.00,WUHU216HW,2013-04-29 13:12:00,
2013-04-29 09:17:00,57.4,47.7,30.24,SSW,203,4.0,4.7,70,0.00,,,0.00,WUHU216HW,2013-04-29 13:17:00,
2013-04-29 09:22:00,57.6,47.5,30.24,SE,138,2.2,6.7,69,0.00,,,0.00,WUHU216HW,2013-04-29 13:22:00,
2013-04-29 09:27:00,58.0,47.9,30.24,NE,45,1.1,6.7,69,0.00,,,0.00,WUHU216HW,2013-04-29 13:27:00,
2013-04-29 09:32:00,58.0,47.4,30.24,SW,225,4.0,4.0,68,0.00,,,0.00,WUHU216HW,2013-04-29 13:32:00,
2013-04-29 09:37:00,58.1,46.8,30.24,SSW,203,4.7,4.7,66,0.00,,,0.00,WUHU216HW,2013-04-29 13:37:00,
2013-04-29 09:42:00,58.1,46.8,30.24,SSW,203,4.3,6.7,66,0.00,,,0.00,WUHU216HW,2013-04-29 13:42:00,
2013-04-29 09:47:00,58.1,46.8,30.24,SSW,203,3.4,6.7,66,0.00,,,0.00,WUHU216HW,2013-04-29 13:47:00,
2013-04-29 09:52:00,58.0,46.6,30.24,SSW,203,1.8,5.1,66,0.00,,,0.00,WUHU216HW,2013-04-29 13:52:00,
2013-04-29 09:56:00,58.0,46.3,30.24,North,1,1.2,4.5,65,0.00,,,0.00,WUHU216HW,2013-04-29 13:56:00,
2013-04-29 10:01:00,58.1,46.8,30.24,SSW,204,2.1,4.9,66,0.00,,,0.00,WUHU216HW,2013-04-29 14:01:00,
2013-04-29 10:06:00,58.3,46.5,30.24,SSW,200,2.5,5.1,65,0.00,,,0.00,WUHU216HW,2013-04-29 14:06:00,
2013-04-29 10:11:00,58.1,46.4,30.25,SW,225,3.4,5.1,65,0.00,,,0.00,WUHU216HW,2013-04-29 14:11:00,
2013-04-29 10:16:00,58.1,46.4,30.24,SW,216,3.3,4.7,65,0.00,,,0.00,WUHU216HW,2013-04-29 14:16:00,
2013-04-29 10:21:00,58.1,46.4,30.25,SSW,206,3.6,4.7,65,0.00,,,0.00,WUHU216HW,2013-04-29 14:21:00,
2013-04-29 10:27:00,58.0,46.3,30.24,WSW,248,4.0,5.8,65,0.00,,,0.00,WUHU216HW,2013-04-29 14:27:00,
2013-04-29 10:32:00,58.0,46.6,30.24,SE,135,1.6,5.8,66,0.00,,,0.00,WUHU216HW,2013-04-29 14:32:00,
2013-04-29 10:37:00,58.0,46.3,30.25,NNW,340,0.7,4.0,65,0.00,,,0.00,WUHU216HW,2013-04-29 14:37:00,
2013-04-29 10:42:00,57.6,45.9,30.25,SW,219,1.4,2.9,65,0.00,,,0.00,WUHU216HW,2013-04-29 14:42:00,
2013-04-29 10:47:00,57.6,45.9,30.25,SSW,203,4.0,5.6,65,0.00,,,0.00,WUHU216HW,2013-04-29 14:47:00,
2013-04-29 10:51:00,57.8,46.4,30.25,ESE,118,1.7,5.6,66,0.00,,,0.00,WUHU216HW,2013-04-29 14:51:00,
2013-04-29 10:57:00,58.0,46.6,30.25,SW,229,1.5,4.5,66,0.00,,,0.00,WUHU216HW,2013-04-29 14:57:00,
2013-04-29 11:02:00,58.0,46.6,30.25,SSW,200,3.5,4.5,66,0.00,,,0.00,WUHU216HW,2013-04-29 15:02:00,
2013-04-29 11:06:00,58.5,47.2,30.25,SSW,205,1.0,4.5,66,0.00,,,0.00,WUHU216HW,2013-04-29 15:06:00,
2013-04-29 11:11:00,58.5,46.7,30.25,West,270,0.9,3.4,65,0.00,,,0.00,WUHU216HW,2013-04-29 15:11:00,
2013-04-29 11:16:00,58.5,46.7,30.24,SSW,203,1.8,2.2,65,0.00,,,0.00,WUHU216HW,2013-04-29 15:16:00,
2013-04-29 11:21:00,58.7,46.9,30.24,SE,135,2.0,2.2,65,0.00,,,0.00,WUHU216HW,2013-04-29 15:21:00,
2013-04-29 11:26:00,58.3,46.2,30.24,North,10,2.0,2.9,64,0.00,,,0.00,WUHU216HW,2013-04-29 15:26:00,
2013-04-29 11:31:00,58.0,45.8,30.24,SSW,208,1.8,4.3,64,0.00,,,0.00,WUHU216HW,2013-04-29 15:31:00,
2013-04-29 11:36:00,58.0,45.8,30.24,South,184,1.5,4.3,64,0.00,,,0.00,WUHU216HW,2013-04-29 15:36:00,
2013-04-29 11:41:00,58.0,45.8,30.24,East,90,2.5,3.8,64,0.00,,,0.00,WUHU216HW,2013-04-29 15:41:00,
2013-04-29 11:46:00,58.1,46.0,30.24,SSW,204,2.2,4.0,64,0.00,,,0.00,WUHU216HW,2013-04-29 15:46:00,
2013-04-29 11:51:00,58.1,46.0,30.24,East,85,1.7,4.0,64,0.00,,,0.00,WUHU216HW,2013-04-29 15:51:00,
2013-04-29 11:56:00,57.8,45.6,30.24,North,1,1.3,2.7,64,0.00,,,0.00,WUHU216HW,2013-04-29 15:56:00,
2013-04-29 12:01:00,57.6,45.5,30.24,SSE,157,1.3,3.1,64,0.00,,,0.00,WUHU216HW,2013-04-29 16:01:00,
2013-04-29 12:06:00,57.6,45.5,30.24,SSE,162,1.8,3.4,64,0.00,,,0.00,WUHU216HW,2013-04-29 16:06:00,
2013-04-29 12:11:00,57.6,45.1,30.24,SSE,168,1.0,3.4,63,0.00,,,0.00,WUHU216HW,2013-04-29 16:11:00,
2013-04-29 12:16:00,57.4,44.9,30.23,SSW,198,3.1,4.0,63,0.00,,,0.00,WUHU216HW,2013-04-29 16:16:00,
2013-04-29 12:21:00,57.6,45.5,30.23,SSW,211,3.2,5.1,64,0.00,,,0.00,WUHU216HW,2013-04-29 16:21:00,
2013-04-29 12:26:00,58.0,45.8,30.23,SSW,205,1.1,5.1,64,0.00,,,0.00,WUHU216HW,2013-04-29 16:26:00,
2013-04-29 12:31:00,58.3,46.2,30.23,East,90,1.8,4.5,64,0.00,,,0.00,WUHU216HW,2013-04-29 16:31:00,
2013-04-29 12:36:00,58.7,46.1,30.23,SSE,158,1.3,2.2,63,0.00,,,0.00,WUHU216HW,2013-04-29 16:36:00,
2013-04-29 12:41:00,58.7,45.7,30.23,SSE,158,1.8,4.0,62,0.00,,,0.00,WUHU216HW,2013-04-29 16:41:00,
2013-04-29 12:46:00,58.9,45.8,30.23,SW,225,1.3,4.0,62,0.00,,,0.00,WUHU216HW,2013-04-29 16:46:00,
2013-04-29 12:51:00,59.0,46.0,30.23,ESE,113,1.8,3.1,62,0.00,,,0.00,WUHU216HW,2013-04-29 16:51:00,
2013-04-29 12:56:00,58.9,45.8,30.23,East,86,2.0,3.4,62,0.00,,,0.00,WUHU216HW,2013-04-29 16:56:00,
2013-04-29 13:01:00,58.9,45.8,30.23,South,180,1.6,6.0,62,0.00,,,0.00,WUHU216HW,2013-04-29 17:01:00,
2013-04-29 13:06:00,59.0,46.0,30.23,NNE,23,1.6,6.0,62,0.00,,,0.00,WUHU216HW,2013-04-29 17:06:00,
2013-04-29 13:12:00,59.0,46.0,30.23,ENE,73,1.4,2.5,62,0.00,,,0.00,WUHU216HW,2013-04-29 17:12:00,
2013-04-29 13:17:00,59.2,45.8,30.23,East,81,1.3,2.5,61,0.00,,,0.00,WUHU216HW,2013-04-29 17:17:00,
2013-04-29 13:22:00,59.2,45.8,30.23,SSW,213,1.4,2.0,61,0.00,,,0.00,WUHU216HW,2013-04-29 17:22:00,
2013-04-29 13:27:00,59.4,45.5,30.23,WNW,293,1.8,2.5,60,0.00,,,0.00,WUHU216HW,2013-04-29 17:27:00,
2013-04-29 13:32:00,59.2,45.4,30.23,NE,56,1.4,2.5,60,0.00,,,0.00,WUHU216HW,2013-04-29 17:32:00,
2013-04-29 13:37:00,59.4,45.5,30.22,SSE,150,2.4,3.6,60,0.00,,,0.00,WUHU216HW,2013-04-29 17:37:00,
2013-04-29 13:42:00,59.4,45.5,30.23,SE,135,3.4,3.6,60,0.00,,,0.00,WUHU216HW,2013-04-29 17:42:00,
2013-04-29 13:47:00,59.4,45.5,30.23,SSW,212,0.9,3.4,60,0.00,,,0.00,WUHU216HW,2013-04-29 17:47:00,
2013-04-29 13:52:00,59.4,44.1,30.23,WSW,248,1.8,3.1,57,0.00,,,0.00,WUHU216HW,2013-04-29 17:52:00,
2013-04-29 13:57:00,59.2,44.5,30.23,ENE,68,2.5,3.1,58,0.00,,,0.00,WUHU216HW,2013-04-29 17:57:00,
2013-04-29 14:02:00,59.0,44.7,30.23,North,0,1.8,2.5,59,0.00,,,0.00,WUHU216HW,2013-04-29 18:02:00,
2013-04-29 14:07:00,59.2,44.5,30.23,NNE,23,1.1,2.0,58,0.00,,,0.00,WUHU216HW,2013-04-29 18:07:00,
2013-04-29 14:12:00,59.2,44.5,30.23,East,89,1.0,2.2,58,0.00,,,0.00,WUHU216HW,2013-04-29 18:12:00,
2013-04-29 14:17:00,59.0,44.3,30.23,ENE,68,1.8,2.5,58,0.00,,,0.00,WUHU216HW,2013-04-29 18:17:00,
2013-04-29 14:22:00,58.9,43.7,30.23,ESE,113,1.8,2.5,57,0.00,,,0.00,WUHU216HW,2013-04-29 18:22:00,
2013-04-29 14:27:00,58.7,43.5,30.23,East,79,2.0,2.7,57,0.00,,,0.00,WUHU216HW,2013-04-29 18:27:00,
2013-04-29 14:32:00,58.5,42.9,30.23,ESE,113,1.1,2.7,56,0.00,,,0.00,WUHU216HW,2013-04-29 18:32:00,
2013-04-29 14:37:00,58.7,43.0,30.23,NE,42,1.0,3.1,56,0.00,,,0.00,WUHU216HW,2013-04-29 18:37:00,
2013-04-29 14:42:00,58.7,43.0,30.23,NNW,330,1.3,3.1,56,0.00,,,0.00,WUHU216HW,2013-04-29 18:42:00,
2013-04-29 14:47:00,58.9,43.1,30.23,North,0,1.3,2.0,56,0.00,,,0.00,WUHU216HW,2013-04-29 18:47:00,
2013-04-29 14:52:00,58.9,43.7,30.23,SW,225,1.1,3.4,57,0.00,,,0.00,WUHU216HW,2013-04-29 18:52:00,
2013-04-29 14:57:00,58.9,43.7,30.23,ENE,73,1.3,3.4,57,0.00,,,0.00,WUHU216HW,2013-04-29 18:57:00,
2013-04-29 15:02:00,59.0,43.7,30.23,NE,45,0.4,1.6,57,0.00,,,0.00,WUHU216HW,2013-04-29 19:02:00,
2013-04-29 15:07:00,59.2,43.9,30.22,SSW,198,1.2,2.0,57,0.00,,,0.00,WUHU216HW,2013-04-29 19:07:00,
2013-04-29 15:12:00,59.0,43.3,30.22,ESE,113,2.0,2.0,56,0.00,,,0.00,WUHU216HW,2013-04-29 19:12:00,
2013-04-29 15:16:00,58.7,43.0,30.22,SE,146,1.2,2.2,56,0.00,,,0.00,WUHU216HW,2013-04-29 19:16:00,
2013-04-29 15:21:00,58.5,42.4,30.22,East,79,1.7,3.1,55,0.00,,,0.00,WUHU216HW,2013-04-29 19:21:00,
2013-04-29 15:26:00,58.5,42.4,30.22,NNW,333,1.3,3.1,55,0.00,,,0.00,WUHU216HW,2013-04-29 19:26:00,
2013-04-29 15:31:00,58.7,42.5,30.22,ENE,68,2.9,2.9,55,0.00,,,0.00,WUHU216HW,2013-04-29 19:31:00,
2013-04-29 15:36:00,58.7,42.5,30.22,NNE,29,0.7,2.9,55,0.00,,,0.00,WUHU216HW,2013-04-29 19:36:00,
2013-04-29 15:41:00,58.5,42.9,30.22,SSW,203,1.3,2.9,56,0.00,,,0.00,WUHU216HW,2013-04-29 19:41:00,
2013-04-29 15:46:00,58.3,42.2,30.22,South,180,1.8,2.7,55,0.00,,,0.00,WUHU216HW,2013-04-29 19:46:00,
2013-04-29 15:51:00,58.1,42.5,30.21,SW,225,1.1,2.5,56,0.00,,,0.00,WUHU216HW,2013-04-29 19:51:00,
2013-04-29 15:56:00,58.3,42.7,30.21,South,180,1.6,2.5,56,0.00,,,0.00,WUHU216HW,2013-04-29 19:56:00,
2013-04-29 16:01:00,58.3,43.1,30.21,SE,130,1.4,3.1,57,0.00,,,0.00,WUHU216HW,2013-04-29 20:01:00,
2013-04-29 16:06:00,58.1,42.9,30.21,NE,45,1.8,3.1,57,0.00,,,0.00,WUHU216HW,2013-04-29 20:06:00,
2013-04-29 16:11:00,58.0,42.9,30.22,North,11,0.9,1.8,57,0.00,,,0.00,WUHU216HW,2013-04-29 20:11:00,
2013-04-29 16:16:00,57.8,42.7,30.21,NE,45,1.8,2.5,57,0.00,,,0.00,WUHU216HW,2013-04-29 20:16:00,
2013-04-29 16:21:00,57.2,42.1,30.21,SSW,203,1.1,2.5,57,0.00,,,0.00,WUHU216HW,2013-04-29 20:21:00,
2013-04-29 16:26:00,57.2,42.7,30.21,WNW,293,0.4,1.8,58,0.00,,,0.00,WUHU216HW,2013-04-29 20:26:00,
2013-04-29 16:31:00,57.2,42.7,30.22,NNE,22,1.3,1.8,58,0.00,,,0.00,WUHU216HW,2013-04-29 20:31:00,
2013-04-29 16:36:00,57.2,42.7,30.21,West,270,1.6,2.0,58,0.00,,,0.00,WUHU216HW,2013-04-29 20:36:00,
2013-04-29 16:41:00,56.7,42.1,30.21,SSW,194,1.5,2.2,58,0.00,,,0.00,WUHU216HW,2013-04-29 20:41:00,
2013-04-29 16:48:00,56.5,42.4,30.21,NW,315,1.1,2.2,59,0.00,,,0.00,WUHU216HW,2013-04-29 20:48:00,
2013-04-29 16:53:00,56.5,42.4,30.21,NE,43,1.0,1.8,59,0.00,,,0.00,WUHU216HW,2013-04-29 20:53:00,
2013-04-29 16:58:00,56.3,42.7,30.21,ESE,122,0.7,2.2,60,0.00,,,0.00,WUHU216HW,2013-04-29 20:58:00,
2013-04-29 17:03:00,56.5,42.8,30.21,SE,135,0.9,2.2,60,0.00,,,0.00,WUHU216HW,2013-04-29 21:03:00,
2013-04-29 17:08:00,56.5,42.8,30.21,SE,135,1.3,1.8,60,0.00,,,0.00,WUHU216HW,2013-04-29 21:08:00,
2013-04-29 17:13:00,56.7,43.0,30.21,NW,315,1.1,1.8,60,0.00,,,0.00,WUHU216HW,2013-04-29 21:13:00,
2013-04-29 17:18:00,56.9,42.8,30.21,SSW,212,0.6,2.0,59,0.00,,,0.00,WUHU216HW,2013-04-29 21:18:00,
2013-04-29 17:23:00,57.1,42.9,30.21,WSW,240,1.0,2.0,59,0.00,,,0.00,WUHU216HW,2013-04-29 21:23:00,
2013-04-29 17:28:00,56.9,41.8,30.22,SSE,158,3.1,5.6,57,0.00,,,0.00,WUHU216HW,2013-04-29 21:28:00,
2013-04-29 17:33:00,56.5,41.4,30.22,WSW,248,1.1,5.6,57,0.00,,,0.00,WUHU216HW,2013-04-29 21:33:00,
2013-04-29 17:38:00,56.3,41.8,30.21,East,90,2.5,3.1,58,0.00,,,0.00,WUHU216HW,2013-04-29 21:38:00,
2013-04-29 17:43:00,56.3,41.8,30.21,NE,39,0.7,2.5,58,0.00,,,0.00,WUHU216HW,2013-04-29 21:43:00,
2013-04-29 17:48:00,56.3,41.8,30.21,West,270,1.1,2.5,58,0.00,,,0.00,WUHU216HW,2013-04-29 21:48:00,
2013-04-29 17:53:00,56.2,41.0,30.21,ESE,112,1.3,1.8,57,0.00,,,0.00,WUHU216HW,2013-04-29 21:53:00,
2013-04-29 17:58:00,56.2,41.0,30.21,WSW,238,1.0,2.9,57,0.00,,,0.00,WUHU216HW,2013-04-29 21:58:00,
2013-04-29 18:03:00,56.2,41.0,30.21,SSW,203,1.1,2.9,57,0.00,,,0.00,WUHU216HW,2013-04-29 22:03:00,
2013-04-29 18:08:00,56.2,41.0,30.21,SSE,167,0.7,1.8,57,0.00,,,0.00,WUHU216HW,2013-04-29 22:08:00,
2013-04-29 18:13:00,56.2,41.0,30.21,South,170,1.3,2.5,57,0.00,,,0.00,WUHU216HW,2013-04-29 22:13:00,
2013-04-29 18:18:00,56.2,41.0,30.21,NNW,338,0.9,2.5,57,0.00,,,0.00,WUHU216HW,2013-04-29 22:18:00,
2013-04-29 18:23:00,56.2,41.0,30.21,ENE,68,0.4,2.2,57,0.00,,,0.00,WUHU216HW,2013-04-29 22:23:00,
2013-04-29 18:28:00,56.2,41.0,30.21,SSW,203,1.8,2.2,57,0.00,,,0.00,WUHU216HW,2013-04-29 22:28:00,
2013-04-29 18:33:00,56.2,41.0,30.21,NW,318,0.4,1.8,57,0.00,,,0.00,WUHU216HW,2013-04-29 22:33:00,
2013-04-29 18:38:00,56.2,41.0,30.21,South,180,0.7,1.8,57,0.00,,,0.00,WUHU216HW,2013-04-29 22:38:00,
2013-04-29 18:43:00,56.0,40.4,30.21,NNW,348,0.8,1.8,56,0.00,,,0.00,WUHU216HW,2013-04-29 22:43:00,
2013-04-29 18:48:00,56.0,40.4,30.21,NNE,16,1.0,1.8,56,0.00,,,0.00,WUHU216HW,2013-04-29 22:48:00,
2013-04-29 18:53:00,55.8,40.2,30.21,NNW,346,0.8,1.8,56,0.00,,,0.00,WUHU216HW,2013-04-29 22:53:00,
2013-04-29 18:58:00,55.6,40.1,30.21,NE,46,0.5,1.1,56,0.00,,,0.00,WUHU216HW,2013-04-29 22:58:00,
2013-04-29 19:03:00,55.4,39.9,30.21,NNW,338,0.9,1.1,56,0.00,,,0.00,WUHU216HW,2013-04-29 23:03:00,
2013-04-29 19:08:00,55.3,39.2,30.21,ENE,65,1.0,1.8,55,0.00,,,0.00,WUHU216HW,2013-04-29 23:08:00,
2013-04-29 19:13:00,54.9,39.0,30.22,North,5,0.5,1.8,55,0.00,,,0.00,WUHU216HW,2013-04-29 23:13:00,
2013-04-29 19:18:00,54.7,38.4,30.21,East,97,1.1,1.8,54,0.00,,,0.00,WUHU216HW,2013-04-29 23:18:00,
2013-04-29 19:23:00,54.5,38.2,30.21,South,175,1.2,1.8,54,0.00,,,0.00,WUHU216HW,2013-04-29 23:23:00,
2013-04-29 19:28:00,54.4,38.0,30.22,East,90,1.3,1.8,54,0.00,,,0.00,WUHU216HW,2013-04-29 23:28:00,
2013-04-29 19:33:00,54.4,38.0,30.22,SW,225,0.4,1.3,54,0.00,,,0.00,WUHU216HW,2013-04-29 23:33:00,
2013-04-29 19:35:00,54.2,37.8,30.22,South,180,0.0,1.3,54,0.00,,,0.00,WUHU216HW,2013-04-29 23:35:00,
2013-04-29 21:07:00,54.2,37.8,30.22,South,180,0.0,0.0,54,0.00,,,0.00,WUHU216HW,2013-04-30 01:07:00,
2013-04-29 21:12:00,54.2,37.8,30.22,South,180,0.0,0.0,54,0.00,,,0.00,WUHU216HW,2013-04-30 01:12:00,